Time;durP1;ratioP1;P1;durP2;ratioP2;P2;SDS_P1;SDS_P2;PMS_P1;PMS_P2;Temp;Humidity;BMP_temperature;BMP_pressure;BME280_temperature;BME280_humidity;BME280_pressure;Samples;Min_cycle;Max_cycle;Signal;HPM_P1;HPM_P2
2022/06/18 00:02:20;;;;;;;1.00;0.85;;;22.20;89.60;;;;;;5037154;28;45419;-75
2022/06/18 00:04:48;;;;;;;1.35;0.77;;;22.20;89.80;;;;;;5039692;28;45232;-75
2022/06/18 00:07:18;;;;;;;1.75;0.90;;;22.20;89.60;;;;;;5044104;28;45247;-75
2022/06/18 00:09:54;;;;;;;2.55;1.00;;;22.20;89.30;;;;;;5045979;28;47089;-75
2022/06/18 00:15:14;;;;;;;1.73;1.10;;;22.20;89.20;;;;;;5037008;28;45306;-75
2022/06/18 00:17:41;;;;;;;1.35;0.93;;;22.20;89.20;;;;;;5038651;28;45157;-75
2022/06/18 00:20:10;;;;;;;1.33;0.88;;;22.10;88.80;;;;;;5036673;28;46132;-75
2022/06/18 00:22:37;;;;;;;2.55;1.10;;;22.20;88.90;;;;;;5039882;28;45387;-75
2022/06/18 00:25:16;;;;;;;1.88;0.98;;;22.20;88.90;;;;;;5043815;28;45356;-75
2022/06/18 00:27:44;;;;;;;1.00;0.90;;;22.20;88.80;;;;;;5038138;28;45288;-75
2022/06/18 00:30:13;;;;;;;1.17;0.88;;;22.20;88.60;;;;;;5042064;28;47160;-75
2022/06/18 00:32:40;;;;;;;0.98;0.70;;;22.20;88.50;;;;;;5042423;28;45524;-75
2022/06/18 00:35:08;;;;;;;2.55;1.10;;;22.20;88.40;;;;;;5042490;28;45245;-75
2022/06/18 00:37:34;;;;;;;1.50;0.80;;;22.20;88.10;;;;;;5032090;28;45392;-75
2022/06/18 00:40:04;;;;;;;1.77;1.00;;;22.20;88.20;;;;;;5043930;28;47805;-75
2022/06/18 00:42:33;;;;;;;1.15;0.77;;;22.20;88.20;;;;;;5046135;28;45568;-75
2022/06/18 00:45:02;;;;;;;1.05;0.70;;;22.20;88.20;;;;;;5048012;28;45135;-75
2022/06/18 00:47:35;;;;;;;3.92;0.95;;;22.20;88.10;;;;;;5041718;28;45147;-75
2022/06/18 00:50:07;;;;;;;3.50;1.02;;;22.20;88.00;;;;;;5045089;28;45512;-75
2022/06/18 00:52:40;;;;;;;1.85;0.90;;;22.20;88.00;;;;;;5045153;28;45752;-75
2022/06/18 00:55:11;;;;;;;1.05;0.77;;;22.20;87.80;;;;;;5037150;28;45829;-75
2022/06/18 00:57:45;;;;;;;1.00;0.68;;;22.20;87.50;;;;;;5041653;28;45312;-75
2022/06/18 01:00:17;;;;;;;0.75;0.75;;;22.20;87.40;;;;;;5043607;28;45554;-75
2022/06/18 01:02:47;;;;;;;3.03;0.82;;;22.20;87.40;;;;;;5047481;28;45348;-74
2022/06/18 01:05:18;;;;;;;1.02;0.80;;;22.20;87.30;;;;;;5046040;28;45212;-75
2022/06/18 01:07:49;;;;;;;0.80;0.70;;;22.20;87.80;;;;;;5044915;28;45307;-75
2022/06/18 01:10:22;;;;;;;0.88;0.70;;;22.20;87.10;;;;;;5042020;28;48037;-75
2022/06/18 01:12:50;;;;;;;1.60;0.80;;;22.20;87.00;;;;;;5039854;28;45311;-75
2022/06/18 01:15:20;;;;;;;1.02;0.88;;;22.20;87.00;;;;;;5045391;28;45129;-75
2022/06/18 01:17:48;;;;;;;0.98;0.88;;;22.20;86.80;;;;;;5046404;28;45522;-75
2022/06/18 01:20:16;;;;;;;0.85;0.82;;;22.20;87.00;;;;;;5042449;28;46313;-75
2022/06/18 01:22:53;;;;;;;1.10;0.90;;;22.20;86.90;;;;;;5044561;28;45571;-75
2022/06/18 01:25:22;;;;;;;1.35;0.90;;;22.20;86.80;;;;;;5044046;28;45444;-74
2022/06/18 01:27:49;;;;;;;1.35;0.93;;;22.20;86.80;;;;;;5044501;28;45361;-75
2022/06/18 01:30:18;;;;;;;0.80;0.73;;;22.20;86.70;;;;;;5044978;28;46823;-75
2022/06/18 01:32:47;;;;;;;1.25;0.82;;;22.20;86.50;;;;;;5045089;28;45540;-75
2022/06/18 01:35:14;;;;;;;1.08;0.85;;;22.20;86.50;;;;;;5044856;28;45472;-75
2022/06/18 01:37:41;;;;;;;1.10;0.68;;;22.20;86.30;;;;;;5048983;28;45165;-75
2022/06/18 01:40:12;;;;;;;1.20;0.82;;;22.20;86.30;;;;;;5045617;28;45106;-75
2022/06/18 01:42:43;;;;;;;1.02;0.80;;;22.20;86.30;;;;;;5044010;28;45346;-75
2022/06/18 01:45:13;;;;;;;0.90;0.73;;;22.20;86.30;;;;;;5038317;28;45217;-75
2022/06/18 01:47:45;;;;;;;1.42;0.80;;;22.20;86.40;;;;;;5043744;28;45208;-75
2022/06/18 01:50:15;;;;;;;1.38;0.90;;;22.20;86.30;;;;;;5041861;28;45319;-75
2022/06/18 01:52:47;;;;;;;1.15;0.90;;;22.10;86.40;;;;;;5041638;28;45384;-75
2022/06/18 01:55:18;;;;;;;1.48;0.90;;;22.20;86.40;;;;;;5044151;28;45299;-74
2022/06/18 01:57:50;;;;;;;1.38;1.00;;;22.10;86.50;;;;;;5044113;28;45421;-75
2022/06/18 02:00:22;;;;;;;1.13;0.90;;;22.20;86.50;;;;;;5039305;28;46217;-75
2022/06/18 02:02:49;;;;;;;1.80;0.88;;;22.20;86.40;;;;;;5046609;28;45161;-75
2022/06/18 02:05:17;;;;;;;1.13;0.82;;;22.10;86.30;;;;;;5039068;28;45281;-74
2022/06/18 02:07:46;;;;;;;1.50;0.68;;;22.10;86.10;;;;;;5044011;28;46241;-75
2022/06/18 02:10:17;;;;;;;0.88;0.70;;;22.10;86.10;;;;;;5037256;28;46360;-75
2022/06/18 02:12:45;;;;;;;2.35;0.95;;;22.10;85.90;;;;;;5043115;28;45974;-74
2022/06/18 02:15:19;;;;;;;1.08;0.80;;;22.10;86.00;;;;;;5041762;28;45157;-75
2022/06/18 02:17:46;;;;;;;1.33;0.70;;;22.20;85.90;;;;;;5045017;28;45531;-75
2022/06/18 02:20:16;;;;;;;0.77;0.70;;;22.10;85.70;;;;;;5042190;28;47302;-75
2022/06/18 02:22:46;;;;;;;2.60;0.90;;;22.10;85.70;;;;;;5041613;28;45838;-75
2022/06/18 02:25:14;;;;;;;0.63;0.63;;;22.20;85.90;;;;;;5041809;28;45318;-75
2022/06/18 02:27:42;;;;;;;0.90;0.70;;;22.20;85.70;;;;;;5041689;28;45565;-74
2022/06/18 02:30:16;;;;;;;1.17;0.90;;;22.20;85.80;;;;;;5041628;28;46300;-74
2022/06/18 02:32:50;;;;;;;4.18;0.80;;;22.20;85.60;;;;;;5042496;28;45237;-74
2022/06/18 02:35:18;;;;;;;0.60;0.60;;;22.20;85.70;;;;;;5042586;28;45254;-74
2022/06/18 02:37:46;;;;;;;0.90;0.80;;;22.20;85.60;;;;;;5039337;28;45403;-74
2022/06/18 02:40:24;;;;;;;1.58;0.70;;;22.10;85.60;;;;;;5043379;28;45462;-74
2022/06/18 02:42:54;;;;;;;1.02;0.93;;;22.10;85.70;;;;;;5044325;28;45241;-74
2022/06/18 02:45:24;;;;;;;1.52;0.98;;;22.20;85.80;;;;;;5043637;28;45383;-74
2022/06/18 02:47:52;;;;;;;2.15;0.82;;;22.20;86.00;;;;;;5042373;28;45217;-74
2022/06/18 02:50:22;;;;;;;0.73;0.70;;;22.10;85.90;;;;;;5042403;28;48167;-74
2022/06/18 02:52:51;;;;;;;0.75;0.70;;;22.20;86.00;;;;;;5038537;28;45373;-75
2022/06/18 02:55:26;;;;;;;1.20;0.90;;;22.10;86.00;;;;;;5043381;28;45523;-74
2022/06/18 02:57:57;;;;;;;1.13;0.77;;;22.20;86.20;;;;;;5043039;28;45477;-75
2022/06/18 03:00:26;;;;;;;0.95;0.90;;;22.10;86.00;;;;;;5040137;28;47373;-75
2022/06/18 03:02:53;;;;;;;1.58;0.93;;;22.10;86.00;;;;;;5038670;28;46545;-74
2022/06/18 03:05:23;;;;;;;1.13;0.80;;;22.10;86.00;;;;;;5041813;28;45333;-74
2022/06/18 03:07:50;;;;;;;0.90;0.80;;;22.10;86.10;;;;;;5044321;28;45316;-74
2022/06/18 03:13:03;;;;;;;1.02;0.73;;;22.10;86.00;;;;;;5040757;28;45186;-74
2022/06/18 03:15:32;;;;;;;1.15;0.60;;;22.10;86.00;;;;;;5041927;28;45280;-75
2022/06/18 03:17:59;;;;;;;1.63;0.70;;;22.10;85.90;;;;;;5041021;28;45666;-74
2022/06/18 03:20:35;;;;;;;0.93;0.75;;;22.10;85.90;;;;;;5040624;28;45677;-74
2022/06/18 03:23:02;;;;;;;1.05;0.60;;;22.10;85.70;;;;;;5040583;28;45723;-74
2022/06/18 03:25:29;;;;;;;1.13;0.60;;;22.10;85.70;;;;;;5043635;28;45477;-74
2022/06/18 03:27:55;;;;;;;1.27;0.70;;;22.10;85.70;;;;;;5043841;28;45399;-74
2022/06/18 03:30:22;;;;;;;2.65;0.70;;;22.10;85.50;;;;;;5043622;28;46581;-74
2022/06/18 03:32:51;;;;;;;1.08;0.77;;;22.10;85.40;;;;;;5041068;28;45536;-74
2022/06/18 03:35:17;;;;;;;2.38;0.70;;;22.20;85.40;;;;;;5041349;28;45259;-74
2022/06/18 03:37:44;;;;;;;1.23;0.95;;;22.10;85.20;;;;;;5040445;28;45399;-74
2022/06/18 03:40:13;;;;;;;0.77;0.70;;;22.10;85.10;;;;;;5044928;28;45503;-74
2022/06/18 03:42:40;;;;;;;0.60;0.60;;;22.10;85.20;;;;;;5045153;28;45837;-75
2022/06/18 03:45:09;;;;;;;0.60;0.60;;;22.20;85.40;;;;;;5045386;28;45125;-75
2022/06/18 03:47:36;;;;;;;0.57;0.50;;;22.20;85.40;;;;;;5046718;28;45377;-75
2022/06/18 03:50:06;;;;;;;1.58;0.80;;;22.10;85.20;;;;;;5044648;28;46316;-75
2022/06/18 03:52:33;;;;;;;2.58;0.93;;;22.10;85.40;;;;;;5045058;28;45181;-75
2022/06/18 03:54:59;;;;;;;1.45;0.88;;;22.10;85.60;;;;;;5044136;28;45223;-75
2022/06/18 03:57:31;;;;;;;1.92;0.88;;;22.20;85.70;;;;;;5045399;28;45455;-75
2022/06/18 03:59:59;;;;;;;1.05;0.85;;;22.10;85.70;;;;;;5046342;28;46458;-75
2022/06/18 04:02:26;;;;;;;1.00;0.65;;;22.10;85.80;;;;;;5047151;28;45218;-75
2022/06/18 04:04:53;;;;;;;1.52;0.98;;;22.10;85.80;;;;;;5046163;28;45631;-75
2022/06/18 04:07:23;;;;;;;1.20;0.75;;;22.10;85.80;;;;;;5047095;28;45236;-75
2022/06/18 04:09:52;;;;;;;1.10;0.70;;;22.10;85.70;;;;;;5029417;28;47244;-75
2022/06/18 04:12:19;;;;;;;0.95;0.80;;;22.10;85.80;;;;;;5028671;28;45313;-74
2022/06/18 04:14:46;;;;;;;1.23;0.77;;;22.10;85.90;;;;;;5038933;28;45107;-75
2022/06/18 04:17:13;;;;;;;0.93;0.80;;;22.10;85.80;;;;;;5246313;22;45349;-75
2022/06/18 04:19:40;;;;;;;1.95;0.75;;;22.10;85.70;;;;;;5049618;28;46476;-75
2022/06/18 04:22:07;;;;;;;2.40;0.80;;;22.10;85.70;;;;;;5049698;28;45140;-75
2022/06/18 04:24:36;;;;;;;2.08;0.80;;;22.10;85.50;;;;;;5053495;28;45253;-75
2022/06/18 04:27:04;;;;;;;0.82;0.70;;;22.10;86.50;;;;;;5058463;28;45396;-75
2022/06/18 04:29:31;;;;;;;2.13;1.02;;;22.10;85.40;;;;;;5056584;28;47767;-75
2022/06/18 04:31:59;;;;;;;0.60;0.60;;;22.10;85.30;;;;;;5052776;28;45156;-75
2022/06/18 04:34:26;;;;;;;0.88;0.70;;;22.20;85.40;;;;;;5049137;28;45507;-75
2022/06/18 04:36:53;;;;;;;1.27;0.98;;;22.10;85.40;;;;;;5049581;28;45404;-75
2022/06/18 04:39:20;;;;;;;1.13;0.80;;;22.10;85.40;;;;;;5046318;28;46879;-75
2022/06/18 04:41:48;;;;;;;0.80;0.77;;;22.10;85.40;;;;;;5059473;28;45186;-75
2022/06/18 04:44:15;;;;;;;0.75;0.57;;;22.20;85.50;;;;;;5050140;28;45324;-74
2022/06/18 04:46:42;;;;;;;1.08;0.70;;;22.10;85.50;;;;;;5048702;28;45432;-75
2022/06/18 04:49:09;;;;;;;3.20;0.70;;;22.10;85.50;;;;;;5059844;28;48253;-75
2022/06/18 04:51:36;;;;;;;1.85;0.90;;;22.10;85.50;;;;;;5064831;28;45293;-75
2022/06/18 04:54:03;;;;;;;0.85;0.70;;;22.20;85.60;;;;;;5060705;28;45775;-75
2022/06/18 04:56:29;;;;;;;1.88;1.00;;;22.20;85.70;;;;;;5049927;28;45196;-75
2022/06/18 04:58:58;;;;;;;1.88;0.98;;;22.20;85.70;;;;;;5050105;28;47415;-75
2022/06/18 05:01:29;;;;;;;0.63;0.60;;;22.10;85.80;;;;;;5060285;28;45098;-75
2022/06/18 05:03:56;;;;;;;1.42;0.90;;;22.10;85.80;;;;;;5047693;28;45194;-75
2022/06/18 05:06:23;;;;;;;1.67;0.68;;;22.10;85.90;;;;;;5049455;28;45399;-75
2022/06/18 05:08:50;;;;;;;1.00;0.70;;;22.10;86.00;;;;;;5049938;28;45337;-75
2022/06/18 05:11:17;;;;;;;0.75;0.75;;;22.10;86.10;;;;;;5047894;28;45163;-75
2022/06/18 05:13:44;;;;;;;0.88;0.80;;;22.10;86.10;;;;;;5049120;28;45249;-75
2022/06/18 05:16:13;;;;;;;2.28;0.80;;;22.10;86.10;;;;;;5049682;28;45259;-75
2022/06/18 05:18:45;;;;;;;0.70;0.60;;;22.10;86.20;;;;;;5049014;28;47078;-75
2022/06/18 05:21:12;;;;;;;0.77;0.70;;;22.10;86.20;;;;;;5049578;28;46836;-75
2022/06/18 05:23:39;;;;;;;1.27;0.68;;;22.10;87.30;;;;;;5058238;28;45302;-75
2022/06/18 05:26:07;;;;;;;0.82;0.60;;;22.10;86.40;;;;;;5057111;28;45150;-75
2022/06/18 05:28:33;;;;;;;3.53;0.90;;;22.10;86.30;;;;;;5057578;28;47719;-75
2022/06/18 05:31:00;;;;;;;0.93;0.70;;;22.10;86.30;;;;;;5068112;28;45267;-75
2022/06/18 05:33:28;;;;;;;1.13;0.80;;;22.10;86.30;;;;;;5064742;28;45177;-75
2022/06/18 05:35:55;;;;;;;0.80;0.60;;;22.30;86.60;;;;;;5047801;28;45217;-75
2022/06/18 05:38:24;;;;;;;0.60;0.60;;;22.10;86.30;;;;;;5048348;28;46576;-75
2022/06/18 05:40:51;;;;;;;0.65;0.63;;;22.10;86.30;;;;;;5048999;28;45222;-75
2022/06/18 05:43:18;;;;;;;0.70;0.68;;;22.10;86.30;;;;;;5043868;28;45299;-75
2022/06/18 05:45:45;;;;;;;0.88;0.80;;;22.20;86.40;;;;;;5055601;28;45163;-75
2022/06/18 05:48:13;;;;;;;1.45;0.80;;;22.20;86.30;;;;;;5060201;28;47323;-75
2022/06/18 05:50:41;;;;;;;0.73;0.70;;;22.10;86.20;;;;;;5046283;28;46872;-75
2022/06/18 05:53:08;;;;;;;0.60;0.60;;;22.20;86.30;;;;;;5048844;28;45236;-75
2022/06/18 05:55:35;;;;;;;0.80;0.70;;;22.20;86.40;;;;;;5058844;28;45635;-75
2022/06/18 05:58:02;;;;;;;1.10;0.80;;;22.20;86.40;;;;;;5058496;28;45318;-75
2022/06/18 06:00:31;;;;;;;0.82;0.68;;;22.20;86.40;;;;;;5045852;28;45451;-75
2022/06/18 06:02:58;;;;;;;3.50;0.77;;;22.20;86.50;;;;;;5057425;28;45151;-75
2022/06/18 06:05:25;;;;;;;1.33;0.60;;;22.20;86.70;;;;;;5055048;28;45358;-75
2022/06/18 06:07:53;;;;;;;0.80;0.70;;;22.20;86.90;;;;;;5048905;28;46486;-75
2022/06/18 06:13:09;;;;;;;0.70;0.70;;;22.10;86.80;;;;;;5057031;28;45228;-74
2022/06/18 06:15:37;;;;;;;1.08;0.50;;;22.20;87.00;;;;;;5048709;28;45389;-75
2022/06/18 06:18:04;;;;;;;0.60;0.60;;;22.10;87.20;;;;;;5048512;28;47903;-75
2022/06/18 06:20:36;;;;;;;1.08;0.60;;;22.20;87.10;;;;;;5046702;28;45261;-75
2022/06/18 06:23:05;;;;;;;1.13;0.77;;;22.20;87.40;;;;;;5048621;28;45187;-75
2022/06/18 06:25:31;;;;;;;0.70;0.70;;;22.20;87.50;;;;;;5055366;28;45416;-75
2022/06/18 06:27:58;;;;;;;0.90;0.60;;;22.20;87.60;;;;;;5059786;28;46437;-75
2022/06/18 06:30:25;;;;;;;0.88;0.60;;;22.20;87.70;;;;;;5052223;28;45240;-75
2022/06/18 06:32:52;;;;;;;1.13;0.75;;;22.20;87.50;;;;;;5055267;28;45135;-75
2022/06/18 06:35:19;;;;;;;0.60;0.60;;;22.20;87.70;;;;;;5047820;28;45266;-75
2022/06/18 06:37:46;;;;;;;0.93;0.55;;;22.20;87.90;;;;;;5055792;28;45632;-75
2022/06/18 06:40:15;;;;;;;0.63;0.60;;;22.20;87.80;;;;;;5057699;28;45441;-75
2022/06/18 06:42:43;;;;;;;0.70;0.70;;;22.20;88.80;;;;;;5068284;28;45159;-75
2022/06/18 06:45:17;;;;;;;0.70;0.57;;;22.20;87.70;;;;;;5048330;28;45477;-75
2022/06/18 06:47:44;;;;;;;0.82;0.70;;;22.20;88.00;;;;;;5046592;28;45397;-75
2022/06/18 06:50:11;;;;;;;1.13;0.70;;;22.20;88.00;;;;;;5047416;28;45236;-75
2022/06/18 06:52:38;;;;;;;0.63;0.50;;;22.20;87.90;;;;;;5040613;28;46264;-75
2022/06/18 06:57:53;;;;;;;0.60;0.60;;;22.20;87.90;;;;;;5038743;28;45457;-75
2022/06/18 07:00:20;;;;;;;0.85;0.80;;;22.20;88.50;;;;;;5043382;28;45590;-75
2022/06/18 07:02:47;;;;;;;0.88;0.70;;;22.20;88.70;;;;;;5040957;28;45464;-75
2022/06/18 07:05:14;;;;;;;1.52;0.70;;;22.20;89.10;;;;;;5045856;28;45153;-75
2022/06/18 07:07:41;;;;;;;0.77;0.68;;;22.20;88.90;;;;;;5055957;28;47421;-75
2022/06/18 07:10:10;;;;;;;1.27;0.80;;;22.20;89.00;;;;;;5041370;28;46903;-75
2022/06/18 07:12:38;;;;;;;0.73;0.60;;;22.30;89.40;;;;;;5047289;28;45239;-75
2022/06/18 07:15:08;;;;;;;1.05;0.50;;;22.20;89.20;;;;;;5052832;28;45125;-75
2022/06/18 07:17:35;;;;;;;0.80;0.50;;;22.20;89.10;;;;;;5051449;28;45367;-75
2022/06/18 07:20:03;;;;;;;0.93;0.60;;;22.20;88.90;;;;;;5054123;28;45251;-76
2022/06/18 07:22:31;;;;;;;0.82;0.60;;;22.20;89.00;;;;;;5054945;28;45233;-76
2022/06/18 07:24:58;;;;;;;0.77;0.70;;;22.20;88.90;;;;;;5055034;28;45374;-76
2022/06/18 07:27:25;;;;;;;1.65;0.73;;;22.20;88.50;;;;;;5049063;28;48127;-75
2022/06/18 07:29:52;;;;;;;1.05;0.90;;;22.30;88.50;;;;;;5056921;28;46047;-76
2022/06/18 07:32:21;;;;;;;1.85;0.68;;;22.20;88.50;;;;;;5058197;28;45251;-75
2022/06/18 07:34:48;;;;;;;0.85;0.60;;;22.20;88.20;;;;;;5047992;28;45359;-74
2022/06/18 07:37:14;;;;;;;1.48;1.05;;;22.20;88.20;;;;;;5046809;28;46080;-75
2022/06/18 07:39:41;;;;;;;1.95;0.90;;;22.20;87.80;;;;;;5052488;28;45229;-75
2022/06/18 07:42:09;;;;;;;4.63;0.98;;;22.30;87.90;;;;;;5053482;28;45218;-75
2022/06/18 07:44:36;;;;;;;2.58;1.73;;;22.20;87.70;;;;;;5049823;28;45290;-75
2022/06/18 07:47:03;;;;;;;2.83;1.27;;;22.20;87.50;;;;;;5063751;28;47966;-75
2022/06/18 07:49:31;;;;;;;2.35;0.90;;;22.20;87.50;;;;;;5051950;28;45574;-75
2022/06/18 07:51:58;;;;;;;2.42;0.90;;;22.20;87.30;;;;;;5052163;28;45209;-74
2022/06/18 07:54:25;;;;;;;1.38;0.80;;;22.30;87.30;;;;;;5048853;28;45282;-75
2022/06/18 07:56:52;;;;;;;0.88;0.80;;;22.20;87.50;;;;;;5044495;28;45562;-74
2022/06/18 07:59:19;;;;;;;0.70;0.57;;;22.30;87.50;;;;;;5055156;28;45439;-75
2022/06/18 08:01:46;;;;;;;2.00;0.80;;;22.30;87.60;;;;;;5054109;28;45209;-75
2022/06/18 08:04:13;;;;;;;0.73;0.70;;;22.30;87.50;;;;;;5059037;28;45161;-75
2022/06/18 08:06:41;;;;;;;0.70;0.70;;;22.20;87.40;;;;;;5058378;28;45198;-75
2022/06/18 08:09:08;;;;;;;0.63;0.60;;;22.30;87.70;;;;;;5065492;28;45439;-75
2022/06/18 08:11:37;;;;;;;1.63;0.80;;;22.30;88.00;;;;;;5050519;28;45256;-75
2022/06/18 08:14:04;;;;;;;1.45;0.70;;;22.30;87.80;;;;;;5056199;28;45204;-75
2022/06/18 08:16:31;;;;;;;1.05;0.80;;;22.30;88.10;;;;;;5053798;28;47140;-75
2022/06/18 08:19:00;;;;;;;1.35;0.80;;;22.30;88.00;;;;;;5058319;28;45292;-75
2022/06/18 08:21:32;;;;;;;1.30;0.80;;;22.30;87.80;;;;;;5058267;28;45229;-75
2022/06/18 08:24:05;;;;;;;0.93;0.70;;;22.30;87.80;;;;;;5049658;28;45130;-75
2022/06/18 08:26:32;;;;;;;2.15;0.90;;;22.30;87.90;;;;;;5054574;28;46212;-76
2022/06/18 08:29:01;;;;;;;1.33;1.00;;;22.40;87.90;;;;;;5055595;28;45249;-76
2022/06/18 08:31:28;;;;;;;2.15;1.00;;;22.30;87.80;;;;;;5046467;28;45311;-75
2022/06/18 08:33:55;;;;;;;1.20;0.90;;;22.30;87.70;;;;;;5044540;28;45376;-74
2022/06/18 08:36:22;;;;;;;1.55;0.90;;;22.30;87.60;;;;;;5047422;28;46450;-74
2022/06/18 08:38:51;;;;;;;2.03;1.10;;;22.30;87.70;;;;;;5050170;28;45319;-74
2022/06/18 08:41:32;;;;;;;1.45;0.80;;;22.30;87.50;;;;;;5054316;28;45189;-75
2022/06/18 08:44:27;;;;;;;1.45;0.70;;;22.30;87.50;;;;;;5057283;28;45447;-75
2022/06/18 08:47:05;;;;;;;1.45;0.85;;;22.30;87.70;;;;;;5056870;28;45392;-75
2022/06/18 08:49:51;;;;;;;1.00;0.90;;;22.30;87.70;;;;;;5050729;28;45497;-75
2022/06/18 08:52:33;;;;;;;0.80;0.70;;;22.30;87.70;;;;;;5041729;28;45363;-76
2022/06/18 08:55:08;;;;;;;1.00;0.70;;;22.30;87.70;;;;;;5045429;28;45401;-75
2022/06/18 08:57:41;;;;;;;1.80;0.88;;;22.30;87.60;;;;;;5053870;28;45960;-75
2022/06/18 09:00:13;;;;;;;0.82;0.70;;;22.30;87.50;;;;;;5049879;28;45212;-76
2022/06/18 09:02:47;;;;;;;1.58;0.77;;;22.30;87.40;;;;;;5051208;28;45117;-75
2022/06/18 09:05:23;;;;;;;0.50;0.50;;;22.30;87.60;;;;;;5049077;28;45270;-76
2022/06/18 09:08:22;;;;;;;1.20;0.70;;;22.30;87.70;;;;;;5045556;28;48174;-75
2022/06/18 09:11:11;;;;;;;2.30;0.73;;;22.30;87.70;;;;;;5033813;28;45307;-76
2022/06/18 09:13:44;;;;;;;1.35;0.90;;;22.30;87.50;;;;;;5052959;28;45245;-76
2022/06/18 09:16:16;;;;;;;1.17;0.90;;;22.30;87.70;;;;;;5053943;28;45290;-75
2022/06/18 09:18:49;;;;;;;0.82;0.60;;;22.30;87.70;;;;;;5059598;28;46654;-74
2022/06/18 09:21:21;;;;;;;1.55;0.88;;;22.30;87.60;;;;;;5048767;28;45204;-74
2022/06/18 09:23:52;;;;;;;3.70;1.00;;;22.30;87.60;;;;;;5058823;28;45457;-75
2022/06/18 09:26:23;;;;;;;1.52;0.68;;;22.30;87.40;;;;;;5056108;28;45092;-75
2022/06/18 09:28:57;;;;;;;1.20;0.80;;;22.30;87.70;;;;;;5056132;28;45962;-75
2022/06/18 09:31:32;;;;;;;1.07;0.80;;;22.30;88.20;;;;;;5041380;28;45460;-75
2022/06/18 09:34:05;;;;;;;1.88;1.00;;;22.40;87.70;;;;;;5058779;28;45218;-76
2022/06/18 09:36:37;;;;;;;0.98;0.80;;;22.40;87.70;;;;;;5052956;28;46527;-76
2022/06/18 09:39:08;;;;;;;1.02;0.90;;;22.40;87.50;;;;;;5044755;28;46039;-76
2022/06/18 09:41:40;;;;;;;1.80;0.95;;;22.40;87.50;;;;;;5051549;28;45451;-75
2022/06/18 09:44:17;;;;;;;1.33;0.82;;;22.40;87.40;;;;;;5050075;28;45323;-75
2022/06/18 09:46:48;;;;;;;1.67;0.80;;;22.30;87.20;;;;;;5047608;28;45157;-75
2022/06/18 09:49:15;;;;;;;1.65;0.90;;;22.40;87.10;;;;;;5032697;28;46015;-76
2022/06/18 09:51:47;;;;;;;2.55;1.20;;;22.40;87.00;;;;;;5044825;28;45196;-76
2022/06/18 09:54:18;;;;;;;2.30;0.80;;;22.40;87.00;;;;;;5046490;28;45336;-75
2022/06/18 09:56:48;;;;;;;1.65;0.98;;;22.40;86.90;;;;;;5044432;28;45323;-76
2022/06/18 09:59:20;;;;;;;1.30;0.70;;;22.40;86.70;;;;;;5049301;28;47414;-75
2022/06/18 10:01:52;;;;;;;3.65;1.20;;;22.40;86.80;;;;;;5046204;28;45166;-75
2022/06/18 10:07:10;;;;;;;1.38;0.88;;;22.40;86.80;;;;;;5049293;28;45196;-75
2022/06/18 10:09:41;;;;;;;1.20;0.70;;;22.40;86.80;;;;;;5044262;28;45303;-75
2022/06/18 10:12:17;;;;;;;1.48;0.90;;;22.40;86.80;;;;;;5043927;28;45248;-76
2022/06/18 10:14:53;;;;;;;1.48;0.70;;;22.40;86.70;;;;;;5040272;28;45352;-75
2022/06/18 10:17:34;;;;;;;50.20;5.00;;;22.40;86.60;;;;;;5050799;28;45481;-79
2022/06/18 10:20:09;;;;;;;14.45;2.20;;;22.40;87.30;;;;;;5041552;28;47883;-79
2022/06/18 10:22:47;;;;;;;6.55;1.08;;;22.40;86.80;;;;;;5043001;28;45268;-77
2022/06/18 10:25:25;;;;;;;2.55;1.05;;;22.40;86.50;;;;;;5037080;28;45758;-77
2022/06/18 10:28:00;;;;;;;2.25;1.08;;;22.30;85.90;;;;;;5048440;28;45331;-78
2022/06/18 10:30:38;;;;;;;3.40;0.85;;;22.30;85.90;;;;;;5042349;28;48149;-74
2022/06/18 10:33:20;;;;;;;4.45;0.80;;;22.30;85.50;;;;;;5040873;28;45260;-79
2022/06/18 10:35:55;;;;;;;1.40;0.77;;;22.30;85.50;;;;;;5043956;28;45452;-79
2022/06/18 10:38:55;;;;;;;2.67;0.90;;;22.30;85.70;;;;;;5046079;28;45623;-79
2022/06/18 10:41:27;;;;;;;1.90;0.70;;;22.30;85.40;;;;;;5034311;28;45366;-79
2022/06/18 10:44:04;;;;;;;4.65;1.60;;;22.40;85.60;;;;;;5047365;28;45245;-80
2022/06/18 10:46:33;;;;;;;3.10;1.10;;;22.40;85.30;;;;;;5043906;28;45319;-79
2022/06/18 10:49:04;;;;;;;3.15;1.10;;;22.40;85.00;;;;;;5052323;28;45292;-79
2022/06/18 10:51:42;;;;;;;3.00;0.70;;;22.40;84.90;;;;;;5047262;28;45820;-79
2022/06/18 10:54:09;;;;;;;2.00;0.80;;;22.40;84.90;;;;;;5042306;28;45389;-79
2022/06/18 10:56:51;;;;;;;2.63;0.90;;;22.40;84.80;;;;;;5042980;28;45253;-78
2022/06/18 10:59:30;;;;;;;3.13;0.85;;;22.50;84.90;;;;;;5053910;28;45313;-79
2022/06/18 11:02:05;;;;;;;0.95;0.60;;;22.50;84.80;;;;;;5047829;28;45972;-80
2022/06/18 11:04:33;;;;;;;2.50;0.82;;;22.50;84.90;;;;;;5041456;28;45880;-80
2022/06/18 11:07:03;;;;;;;2.38;1.00;;;22.50;85.10;;;;;;5043037;28;45576;-80
2022/06/18 11:09:34;;;;;;;1.48;0.93;;;22.50;84.80;;;;;;5043578;28;45229;-80
2022/06/18 11:12:05;;;;;;;1.33;0.98;;;22.50;84.80;;;;;;5054367;28;45290;-80
2022/06/18 11:14:40;;;;;;;2.55;0.70;;;22.50;84.50;;;;;;5045811;28;45211;-79
2022/06/18 11:17:20;;;;;;;2.50;0.80;;;22.50;84.40;;;;;;5042634;28;45335;-81
2022/06/18 11:19:48;;;;;;;1.05;0.80;;;22.50;84.20;;;;;;5043353;28;45269;-80
2022/06/18 11:22:18;;;;;;;1.80;1.10;;;22.30;84.10;;;;;;5044719;28;47635;-79
2022/06/18 11:24:45;;;;;;;2.15;0.90;;;22.50;84.40;;;;;;5046553;28;45320;-80
2022/06/18 11:27:17;;;;;;;1.80;1.00;;;23.10;84.90;;;;;;5045058;28;45098;-80
2022/06/18 11:29:48;;;;;;;2.05;0.90;;;22.50;84.10;;;;;;5041742;28;45138;-80
2022/06/18 11:32:32;;;;;;;3.38;1.13;;;22.50;83.80;;;;;;5050280;28;45513;-78
2022/06/18 11:35:04;;;;;;;4.38;1.10;;;22.50;83.50;;;;;;5048540;28;46517;-82
2022/06/18 11:37:34;;;;;;;1.75;0.80;;;22.90;84.00;;;;;;5044709;28;45292;-81
2022/06/18 11:40:03;;;;;;;1.88;0.90;;;22.50;84.10;;;;;;5054577;28;45164;-83
2022/06/18 11:42:38;;;;;;;3.22;1.00;;;22.50;84.30;;;;;;5041875;28;47995;-85
2022/06/18 11:45:22;;;;;;;3.97;1.15;;;22.70;84.90;;;;;;5049473;28;45239;-82
2022/06/18 11:48:23;;;;;;;2.03;0.80;;;22.70;85.20;;;;;;5054500;28;45168;-83
2022/06/18 11:50:57;;;;;;;3.65;0.88;;;23.00;86.00;;;;;;5060562;28;45552;-81
2022/06/18 11:53:31;;;;;;;3.22;1.15;;;22.70;85.90;;;;;;5048817;28;47391;-82
2022/06/18 11:59:41;;;;;;;2.00;1.15;;;22.80;86.50;;;;;;5082742;22;46127;-87
2022/06/18 12:02:14;;;;;;;1.80;1.00;;;22.80;86.60;;;;;;5045197;28;45388;-82
2022/06/18 12:04:48;;;;;;;3.08;1.10;;;22.80;87.00;;;;;;5050521;28;47643;-87
2022/06/18 12:07:26;;;;;;;5.40;1.10;;;23.00;88.00;;;;;;5056054;28;44953;-87
2022/06/18 12:09:54;;;;;;;2.20;1.02;;;23.00;87.50;;;;;;5055896;28;45303;-86
2022/06/18 12:18:51;;;;;;;6.60;1.08;;;23.00;88.00;;;;;;5057716;28;44858;-87
2022/06/18 12:21:27;;;;;;;1.92;1.08;;;23.00;88.50;;;;;;5059245;28;45446;-83
2022/06/18 12:24:04;;;;;;;5.30;1.23;;;23.00;89.80;;;;;;5041908;28;45227;-82
2022/06/18 12:26:36;;;;;;;7.07;1.30;;;23.00;90.60;;;;;;5045833;28;47679;-88
2022/06/18 12:29:30;;;;;;;4.28;1.15;;;23.00;91.30;;;;;;5053775;28;46093;-85
2022/06/18 12:32:05;;;;;;;2.13;1.30;;;23.00;90.20;;;;;;5055775;28;45231;-86
2022/06/18 12:34:39;;;;;;;3.50;1.52;;;22.90;89.70;;;;;;5055603;28;45210;-87
2022/06/18 12:37:17;;;;;;;2.40;1.00;;;22.90;89.00;;;;;;5046030;28;47305;-87
2022/06/18 12:39:55;;;;;;;2.17;0.90;;;22.90;88.30;;;;;;5048042;28;45301;-84
2022/06/18 12:42:27;;;;;;;2.45;1.10;;;22.70;87.50;;;;;;5035642;28;45269;-76
2022/06/18 12:45:03;;;;;;;4.65;0.80;;;22.80;87.10;;;;;;5041231;28;45252;-76
2022/06/18 12:47:38;;;;;;;2.03;0.80;;;22.80;86.60;;;;;;5040602;28;50026;-76
2022/06/18 12:50:16;;;;;;;1.70;0.85;;;22.80;86.40;;;;;;5039064;28;45648;-76
2022/06/18 12:52:50;;;;;;;1.25;0.70;;;22.80;86.80;;;;;;5042656;28;45329;-75
2022/06/18 12:55:30;;;;;;;1.80;1.05;;;22.80;86.90;;;;;;5044043;28;45295;-76
2022/06/18 12:58:12;;;;;;;2.80;0.88;;;22.80;86.80;;;;;;5044034;28;47415;-77
2022/06/18 13:00:43;;;;;;;3.88;1.05;;;22.80;86.60;;;;;;5046552;28;45652;-78
2022/06/18 13:03:34;;;;;;;4.15;1.08;;;22.80;86.50;;;;;;5040134;28;45194;-77
2022/06/18 13:06:06;;;;;;;2.08;1.10;;;22.80;87.00;;;;;;5039749;28;45177;-79
2022/06/18 13:08:54;;;;;;;4.20;1.10;;;22.80;86.80;;;;;;5036804;28;46211;-78
2022/06/18 13:11:31;;;;;;;4.15;1.30;;;22.80;87.00;;;;;;5034812;28;45487;-76
2022/06/18 13:14:12;;;;;;;5.15;1.40;;;22.80;87.00;;;;;;5033636;28;45479;-75
2022/06/18 13:16:45;;;;;;;4.50;1.50;;;22.90;86.60;;;;;;5042587;28;45411;-75
2022/06/18 13:19:17;;;;;;;10.27;1.30;;;22.90;87.90;;;;;;5036614;28;47346;-76
2022/06/18 13:21:44;;;;;;;3.45;1.20;;;22.90;90.00;;;;;;5039355;28;45376;-75
2022/06/18 13:30:04;;;;;;;4.22;1.30;;;23.20;90.20;;;;;;5039852;28;45767;-76
2022/06/18 13:32:38;;;;;;;5.80;1.13;;;23.50;90.20;;;;;;5047437;28;45628;-76
2022/06/18 13:35:14;;;;;;;4.28;1.38;;;23.70;90.00;;;;;;5043368;28;45323;-75